sensor_id;sensor_type;location;lat;lon;timestamp;temperature;humidity
65692;DHT22;52411;52.716;6.696;2024-01-25T00:00:47;8.50;99.90
65692;DHT22;52411;52.716;6.696;2024-01-25T00:03:12;8.50;99.90
65692;DHT22;52411;52.716;6.696;2024-01-25T00:05:38;8.60;99.90
65692;DHT22;52411;52.716;6.696;2024-01-25T00:08:04;8.50;99.90
65692;DHT22;52411;52.716;6.696;2024-01-25T00:10:29;8.50;99.90
65692;DHT22;52411;52.716;6.696;2024-01-25T00:12:55;8.50;99.90
65692;DHT22;52411;52.716;6.696;2024-01-25T00:15:20;8.40;99.90
65692;DHT22;52411;52.716;6.696;2024-01-25T00:17:46;8.40;99.90
65692;DHT22;52411;52.716;6.696;2024-01-25T00:20:11;8.40;99.90
65692;DHT22;52411;52.716;6.696;2024-01-25T00:22:37;8.30;99.90
65692;DHT22;52411;52.716;6.696;2024-01-25T00:25:04;8.30;99.90
65692;DHT22;52411;52.716;6.696;2024-01-25T00:27:29;8.20;99.90
65692;DHT22;52411;52.716;6.696;2024-01-25T00:29:55;8.10;99.90
65692;DHT22;52411;52.716;6.696;2024-01-25T00:32:20;8.10;99.90
65692;DHT22;52411;52.716;6.696;2024-01-25T00:34:46;8.10;99.90
65692;DHT22;52411;52.716;6.696;2024-01-25T00:37:12;8.00;99.90
65692;DHT22;52411;52.716;6.696;2024-01-25T00:39:37;8.00;99.90
65692;DHT22;52411;52.716;6.696;2024-01-25T00:42:04;7.90;99.90
65692;DHT22;52411;52.716;6.696;2024-01-25T00:44:31;7.80;99.90
65692;DHT22;52411;52.716;6.696;2024-01-25T00:46:57;7.80;99.90
65692;DHT22;52411;52.716;6.696;2024-01-25T00:49:23;7.80;99.90
65692;DHT22;52411;52.716;6.696;2024-01-25T00:51:48;7.80;99.90
65692;DHT22;52411;52.716;6.696;2024-01-25T00:54:16;7.80;99.90
65692;DHT22;52411;52.716;6.696;2024-01-25T00:56:41;7.80;99.90
65692;DHT22;52411;52.716;6.696;2024-01-25T00:59:07;7.70;99.90
65692;DHT22;52411;52.716;6.696;2024-01-25T01:01:33;7.70;99.90
65692;DHT22;52411;52.716;6.696;2024-01-25T01:03:59;7.70;99.90
65692;DHT22;52411;52.716;6.696;2024-01-25T01:06:25;7.60;99.90
65692;DHT22;52411;52.716;6.696;2024-01-25T01:08:51;7.60;99.90
65692;DHT22;52411;52.716;6.696;2024-01-25T01:11:18;7.50;99.90
65692;DHT22;52411;52.716;6.696;2024-01-25T01:13:44;7.40;99.90
65692;DHT22;52411;52.716;6.696;2024-01-25T01:16:09;7.30;99.90
65692;DHT22;52411;52.716;6.696;2024-01-25T01:18:35;7.30;99.90
65692;DHT22;52411;52.716;6.696;2024-01-25T01:21:00;7.20;99.90
65692;DHT22;52411;52.716;6.696;2024-01-25T01:23:26;7.30;99.90
65692;DHT22;52411;52.716;6.696;2024-01-25T01:25:52;7.30;99.90
65692;DHT22;52411;52.716;6.696;2024-01-25T01:28:17;7.30;99.90
65692;DHT22;52411;52.716;6.696;2024-01-25T01:30:43;7.30;99.90
65692;DHT22;52411;52.716;6.696;2024-01-25T01:33:08;7.20;99.90
65692;DHT22;52411;52.716;6.696;2024-01-25T01:35:34;7.20;99.90
65692;DHT22;52411;52.716;6.696;2024-01-25T01:38:00;7.20;99.90
65692;DHT22;52411;52.716;6.696;2024-01-25T01:40:25;7.10;99.90
65692;DHT22;52411;52.716;6.696;2024-01-25T01:42:51;7.10;99.90
65692;DHT22;52411;52.716;6.696;2024-01-25T01:45:17;7.10;99.90
65692;DHT22;52411;52.716;6.696;2024-01-25T01:47:42;7.10;99.90
65692;DHT22;52411;52.716;6.696;2024-01-25T01:50:09;7.00;99.90
65692;DHT22;52411;52.716;6.696;2024-01-25T01:52:35;7.10;99.90
65692;DHT22;52411;52.716;6.696;2024-01-25T01:55:02;7.00;99.90
65692;DHT22;52411;52.716;6.696;2024-01-25T01:57:28;6.90;99.90
65692;DHT22;52411;52.716;6.696;2024-01-25T01:59:55;6.90;99.90
65692;DHT22;52411;52.716;6.696;2024-01-25T02:02:22;6.90;99.90
65692;DHT22;52411;52.716;6.696;2024-01-25T02:04:49;6.90;99.90
65692;DHT22;52411;52.716;6.696;2024-01-25T02:07:14;7.00;99.90
65692;DHT22;52411;52.716;6.696;2024-01-25T02:09:40;6.90;99.90
65692;DHT22;52411;52.716;6.696;2024-01-25T02:12:06;6.90;99.90
65692;DHT22;52411;52.716;6.696;2024-01-25T02:14:32;6.80;99.90
65692;DHT22;52411;52.716;6.696;2024-01-25T02:16:57;6.80;99.90
65692;DHT22;52411;52.716;6.696;2024-01-25T02:19:23;6.70;99.90
65692;DHT22;52411;52.716;6.696;2024-01-25T02:21:49;6.70;99.90
65692;DHT22;52411;52.716;6.696;2024-01-25T02:24:16;6.70;99.90
65692;DHT22;52411;52.716;6.696;2024-01-25T02:26:42;6.60;99.90
65692;DHT22;52411;52.716;6.696;2024-01-25T02:29:07;6.60;99.90
65692;DHT22;52411;52.716;6.696;2024-01-25T02:31:35;6.60;99.90
65692;DHT22;52411;52.716;6.696;2024-01-25T02:34:00;6.60;99.90
65692;DHT22;52411;52.716;6.696;2024-01-25T02:36:26;6.60;99.90
65692;DHT22;52411;52.716;6.696;2024-01-25T02:38:51;6.50;99.90
65692;DHT22;52411;52.716;6.696;2024-01-25T02:41:17;6.50;99.90
65692;DHT22;52411;52.716;6.696;2024-01-25T02:43:42;6.60;99.90
65692;DHT22;52411;52.716;6.696;2024-01-25T02:46:08;6.50;99.90
65692;DHT22;52411;52.716;6.696;2024-01-25T02:48:34;6.50;99.90
65692;DHT22;52411;52.716;6.696;2024-01-25T02:51:00;6.50;99.90
65692;DHT22;52411;52.716;6.696;2024-01-25T02:53:25;6.50;99.90
65692;DHT22;52411;52.716;6.696;2024-01-25T02:55:51;6.50;99.90
65692;DHT22;52411;52.716;6.696;2024-01-25T02:58:16;6.50;99.90
65692;DHT22;52411;52.716;6.696;2024-01-25T03:00:42;6.50;99.90
65692;DHT22;52411;52.716;6.696;2024-01-25T03:03:08;6.50;99.90
65692;DHT22;52411;52.716;6.696;2024-01-25T03:05:33;6.50;99.90
65692;DHT22;52411;52.716;6.696;2024-01-25T03:08:00;6.50;99.90
65692;DHT22;52411;52.716;6.696;2024-01-25T03:10:25;6.50;99.90
65692;DHT22;52411;52.716;6.696;2024-01-25T03:12:51;6.50;99.90
65692;DHT22;52411;52.716;6.696;2024-01-25T03:15:17;6.50;99.90
65692;DHT22;52411;52.716;6.696;2024-01-25T03:17:42;6.40;99.90
65692;DHT22;52411;52.716;6.696;2024-01-25T03:20:09;6.30;99.90
65692;DHT22;52411;52.716;6.696;2024-01-25T03:22:35;6.40;99.90
65692;DHT22;52411;52.716;6.696;2024-01-25T03:25:00;6.30;99.90
65692;DHT22;52411;52.716;6.696;2024-01-25T03:27:26;6.40;99.90
65692;DHT22;52411;52.716;6.696;2024-01-25T03:29:51;6.30;99.90
65692;DHT22;52411;52.716;6.696;2024-01-25T03:32:17;6.30;99.90
65692;DHT22;52411;52.716;6.696;2024-01-25T03:34:42;6.30;99.90
65692;DHT22;52411;52.716;6.696;2024-01-25T03:37:08;6.20;99.90
65692;DHT22;52411;52.716;6.696;2024-01-25T03:39:34;6.20;99.90
65692;DHT22;52411;52.716;6.696;2024-01-25T03:41:59;6.10;99.90
65692;DHT22;52411;52.716;6.696;2024-01-25T03:44:25;6.10;99.90
65692;DHT22;52411;52.716;6.696;2024-01-25T03:46:50;6.00;99.90
65692;DHT22;52411;52.716;6.696;2024-01-25T03:49:16;6.00;99.90
65692;DHT22;52411;52.716;6.696;2024-01-25T03:51:42;6.00;99.90
65692;DHT22;52411;52.716;6.696;2024-01-25T03:54:08;6.00;99.90
65692;DHT22;52411;52.716;6.696;2024-01-25T03:56:33;5.90;99.90
65692;DHT22;52411;52.716;6.696;2024-01-25T03:58:59;5.80;99.90
65692;DHT22;52411;52.716;6.696;2024-01-25T04:01:24;5.70;99.90
65692;DHT22;52411;52.716;6.696;2024-01-25T04:03:50;5.60;99.90
65692;DHT22;52411;52.716;6.696;2024-01-25T04:06:16;5.50;99.90
65692;DHT22;52411;52.716;6.696;2024-01-25T04:08:41;5.40;99.90
65692;DHT22;52411;52.716;6.696;2024-01-25T04:11:07;5.30;99.90
65692;DHT22;52411;52.716;6.696;2024-01-25T04:13:35;5.30;99.90
65692;DHT22;52411;52.716;6.696;2024-01-25T04:16:00;5.20;99.90
65692;DHT22;52411;52.716;6.696;2024-01-25T04:18:26;5.20;99.90
65692;DHT22;52411;52.716;6.696;2024-01-25T04:20:51;5.20;99.90
65692;DHT22;52411;52.716;6.696;2024-01-25T04:23:17;5.20;99.90
65692;DHT22;52411;52.716;6.696;2024-01-25T04:25:43;5.20;99.90
65692;DHT22;52411;52.716;6.696;2024-01-25T04:28:09;5.10;99.90
65692;DHT22;52411;52.716;6.696;2024-01-25T04:30:34;5.10;99.90
65692;DHT22;52411;52.716;6.696;2024-01-25T04:33:00;5.10;99.90
65692;DHT22;52411;52.716;6.696;2024-01-25T04:35:25;5.00;99.90
65692;DHT22;52411;52.716;6.696;2024-01-25T04:37:51;5.00;99.90
65692;DHT22;52411;52.716;6.696;2024-01-25T04:40:16;4.90;99.90
65692;DHT22;52411;52.716;6.696;2024-01-25T04:42:42;4.80;99.90
65692;DHT22;52411;52.716;6.696;2024-01-25T04:45:08;4.80;99.90
65692;DHT22;52411;52.716;6.696;2024-01-25T04:47:34;4.80;99.90
65692;DHT22;52411;52.716;6.696;2024-01-25T04:49:59;4.70;99.90
65692;DHT22;52411;52.716;6.696;2024-01-25T04:52:25;4.60;99.90
65692;DHT22;52411;52.716;6.696;2024-01-25T04:54:51;4.60;99.90
65692;DHT22;52411;52.716;6.696;2024-01-25T04:57:16;4.50;99.90
65692;DHT22;52411;52.716;6.696;2024-01-25T04:59:42;4.50;99.90
65692;DHT22;52411;52.716;6.696;2024-01-25T05:02:08;4.50;99.90
65692;DHT22;52411;52.716;6.696;2024-01-25T05:04:34;4.50;99.90
65692;DHT22;52411;52.716;6.696;2024-01-25T05:07:00;4.40;99.90
65692;DHT22;52411;52.716;6.696;2024-01-25T05:09:26;4.50;99.90
65692;DHT22;52411;52.716;6.696;2024-01-25T05:11:51;4.50;99.90
65692;DHT22;52411;52.716;6.696;2024-01-25T05:14:17;4.50;99.90
65692;DHT22;52411;52.716;6.696;2024-01-25T05:16:42;4.50;99.90
65692;DHT22;52411;52.716;6.696;2024-01-25T05:19:08;4.50;99.90
65692;DHT22;52411;52.716;6.696;2024-01-25T05:21:34;4.40;99.90
65692;DHT22;52411;52.716;6.696;2024-01-25T05:23:59;4.40;99.90
65692;DHT22;52411;52.716;6.696;2024-01-25T05:26:25;4.40;99.90
65692;DHT22;52411;52.716;6.696;2024-01-25T05:28:51;4.50;99.90
65692;DHT22;52411;52.716;6.696;2024-01-25T05:31:16;4.40;99.90
65692;DHT22;52411;52.716;6.696;2024-01-25T05:33:42;4.40;99.90
65692;DHT22;52411;52.716;6.696;2024-01-25T05:36:08;4.40;99.90
65692;DHT22;52411;52.716;6.696;2024-01-25T05:38:35;4.40;99.90
65692;DHT22;52411;52.716;6.696;2024-01-25T05:41:00;4.30;99.90
65692;DHT22;52411;52.716;6.696;2024-01-25T05:43:26;4.30;99.90
65692;DHT22;52411;52.716;6.696;2024-01-25T05:45:51;4.40;99.90
65692;DHT22;52411;52.716;6.696;2024-01-25T05:48:17;4.40;99.90
65692;DHT22;52411;52.716;6.696;2024-01-25T05:50:43;4.40;99.90
65692;DHT22;52411;52.716;6.696;2024-01-25T05:53:08;4.40;99.90
65692;DHT22;52411;52.716;6.696;2024-01-25T05:55:34;4.40;99.90
65692;DHT22;52411;52.716;6.696;2024-01-25T05:58:00;4.40;99.90
65692;DHT22;52411;52.716;6.696;2024-01-25T06:00:25;4.40;99.90
65692;DHT22;52411;52.716;6.696;2024-01-25T06:02:51;4.30;99.90
65692;DHT22;52411;52.716;6.696;2024-01-25T06:05:17;4.30;99.90
65692;DHT22;52411;52.716;6.696;2024-01-25T06:07:43;4.30;99.90
65692;DHT22;52411;52.716;6.696;2024-01-25T06:10:09;4.30;99.90
65692;DHT22;52411;52.716;6.696;2024-01-25T06:12:35;4.30;99.90
65692;DHT22;52411;52.716;6.696;2024-01-25T06:15:01;4.30;99.90
65692;DHT22;52411;52.716;6.696;2024-01-25T06:17:26;4.30;99.90
65692;DHT22;52411;52.716;6.696;2024-01-25T06:19:54;4.30;99.90
65692;DHT22;52411;52.716;6.696;2024-01-25T06:22:20;4.30;99.90
65692;DHT22;52411;52.716;6.696;2024-01-25T06:24:45;4.30;99.90
65692;DHT22;52411;52.716;6.696;2024-01-25T06:27:11;4.20;99.90
65692;DHT22;52411;52.716;6.696;2024-01-25T06:29:36;4.10;99.90
65692;DHT22;52411;52.716;6.696;2024-01-25T06:32:02;4.10;99.90
65692;DHT22;52411;52.716;6.696;2024-01-25T06:34:28;4.00;99.90
65692;DHT22;52411;52.716;6.696;2024-01-25T06:36:54;4.00;99.90
65692;DHT22;52411;52.716;6.696;2024-01-25T06:39:19;3.90;99.90
65692;DHT22;52411;52.716;6.696;2024-01-25T06:41:45;3.80;99.90
65692;DHT22;52411;52.716;6.696;2024-01-25T06:44:10;3.90;99.90
65692;DHT22;52411;52.716;6.696;2024-01-25T06:46:36;3.90;99.90
65692;DHT22;52411;52.716;6.696;2024-01-25T06:49:01;3.90;99.90
65692;DHT22;52411;52.716;6.696;2024-01-25T06:51:28;3.90;99.90
65692;DHT22;52411;52.716;6.696;2024-01-25T06:53:53;3.90;99.90
65692;DHT22;52411;52.716;6.696;2024-01-25T06:56:19;3.90;99.90
65692;DHT22;52411;52.716;6.696;2024-01-25T06:58:44;3.90;99.90
65692;DHT22;52411;52.716;6.696;2024-01-25T07:01:10;3.90;99.90
65692;DHT22;52411;52.716;6.696;2024-01-25T07:03:36;3.80;99.90
65692;DHT22;52411;52.716;6.696;2024-01-25T07:06:01;3.80;99.90
65692;DHT22;52411;52.716;6.696;2024-01-25T07:08:27;3.90;99.90
65692;DHT22;52411;52.716;6.696;2024-01-25T07:10:53;3.80;99.90
65692;DHT22;52411;52.716;6.696;2024-01-25T07:13:18;3.70;99.90
65692;DHT22;52411;52.716;6.696;2024-01-25T07:15:44;3.70;99.90
65692;DHT22;52411;52.716;6.696;2024-01-25T07:18:10;3.70;99.90
65692;DHT22;52411;52.716;6.696;2024-01-25T07:20:36;3.60;99.90
65692;DHT22;52411;52.716;6.696;2024-01-25T07:23:02;3.50;99.90
65692;DHT22;52411;52.716;6.696;2024-01-25T07:25:27;3.50;99.90
65692;DHT22;52411;52.716;6.696;2024-01-25T07:27:53;3.50;99.90
65692;DHT22;52411;52.716;6.696;2024-01-25T07:30:18;3.50;99.90
65692;DHT22;52411;52.716;6.696;2024-01-25T07:32:44;3.50;99.90
65692;DHT22;52411;52.716;6.696;2024-01-25T07:35:12;3.60;99.90
65692;DHT22;52411;52.716;6.696;2024-01-25T07:37:38;3.60;99.90
65692;DHT22;52411;52.716;6.696;2024-01-25T07:40:04;3.60;99.90
65692;DHT22;52411;52.716;6.696;2024-01-25T07:42:30;3.70;99.90
65692;DHT22;52411;52.716;6.696;2024-01-25T07:44:56;3.70;99.90
65692;DHT22;52411;52.716;6.696;2024-01-25T07:47:21;3.70;99.90
65692;DHT22;52411;52.716;6.696;2024-01-25T07:49:48;3.80;99.90
65692;DHT22;52411;52.716;6.696;2024-01-25T07:52:13;3.80;99.90
65692;DHT22;52411;52.716;6.696;2024-01-25T07:54:39;3.90;99.90
65692;DHT22;52411;52.716;6.696;2024-01-25T07:57:05;3.90;99.90
65692;DHT22;52411;52.716;6.696;2024-01-25T07:59:30;4.00;99.90
65692;DHT22;52411;52.716;6.696;2024-01-25T08:01:56;4.10;99.90
65692;DHT22;52411;52.716;6.696;2024-01-25T08:04:22;4.10;99.90
65692;DHT22;52411;52.716;6.696;2024-01-25T08:06:47;4.20;99.90
65692;DHT22;52411;52.716;6.696;2024-01-25T08:09:13;4.20;99.90
65692;DHT22;52411;52.716;6.696;2024-01-25T08:11:39;4.30;99.90
65692;DHT22;52411;52.716;6.696;2024-01-25T08:14:04;4.40;99.90
65692;DHT22;52411;52.716;6.696;2024-01-25T08:16:30;4.40;99.90
65692;DHT22;52411;52.716;6.696;2024-01-25T08:18:56;4.50;99.90
65692;DHT22;52411;52.716;6.696;2024-01-25T08:21:24;4.60;99.90
65692;DHT22;52411;52.716;6.696;2024-01-25T08:23:49;4.60;99.90
65692;DHT22;52411;52.716;6.696;2024-01-25T08:26:15;4.60;99.90
65692;DHT22;52411;52.716;6.696;2024-01-25T08:28:41;4.70;99.90
65692;DHT22;52411;52.716;6.696;2024-01-25T08:31:08;4.70;99.90
65692;DHT22;52411;52.716;6.696;2024-01-25T08:33:34;4.80;99.90
65692;DHT22;52411;52.716;6.696;2024-01-25T08:36:00;4.80;99.90
65692;DHT22;52411;52.716;6.696;2024-01-25T08:38:25;4.80;99.90
65692;DHT22;52411;52.716;6.696;2024-01-25T08:40:51;4.90;99.90
65692;DHT22;52411;52.716;6.696;2024-01-25T08:43:16;4.90;99.90
65692;DHT22;52411;52.716;6.696;2024-01-25T08:45:43;5.00;99.90
65692;DHT22;52411;52.716;6.696;2024-01-25T08:48:09;5.00;99.90
65692;DHT22;52411;52.716;6.696;2024-01-25T08:50:35;5.00;99.90
65692;DHT22;52411;52.716;6.696;2024-01-25T08:53:01;5.10;99.90
65692;DHT22;52411;52.716;6.696;2024-01-25T08:55:27;5.10;99.90
65692;DHT22;52411;52.716;6.696;2024-01-25T08:57:52;5.10;99.90
65692;DHT22;52411;52.716;6.696;2024-01-25T09:00:18;5.00;99.90
65692;DHT22;52411;52.716;6.696;2024-01-25T09:02:44;5.00;99.90
65692;DHT22;52411;52.716;6.696;2024-01-25T09:05:10;5.00;99.90
65692;DHT22;52411;52.716;6.696;2024-01-25T09:07:36;5.00;99.90
65692;DHT22;52411;52.716;6.696;2024-01-25T09:10:02;5.10;99.90
65692;DHT22;52411;52.716;6.696;2024-01-25T09:12:29;5.10;99.90
65692;DHT22;52411;52.716;6.696;2024-01-25T09:14:55;5.20;99.90
65692;DHT22;52411;52.716;6.696;2024-01-25T09:17:21;5.30;99.90
65692;DHT22;52411;52.716;6.696;2024-01-25T09:19:49;5.30;99.90
65692;DHT22;52411;52.716;6.696;2024-01-25T09:22:16;5.40;99.90
65692;DHT22;52411;52.716;6.696;2024-01-25T09:24:43;5.40;99.90
65692;DHT22;52411;52.716;6.696;2024-01-25T09:27:09;5.50;99.90
65692;DHT22;52411;52.716;6.696;2024-01-25T09:29:34;5.60;99.90
65692;DHT22;52411;52.716;6.696;2024-01-25T09:32:00;5.70;99.90
65692;DHT22;52411;52.716;6.696;2024-01-25T09:34:25;5.70;99.90
65692;DHT22;52411;52.716;6.696;2024-01-25T09:36:51;5.80;99.90
65692;DHT22;52411;52.716;6.696;2024-01-25T09:39:17;5.90;99.90
65692;DHT22;52411;52.716;6.696;2024-01-25T09:41:43;6.00;99.90
65692;DHT22;52411;52.716;6.696;2024-01-25T09:44:09;6.00;99.90
65692;DHT22;52411;52.716;6.696;2024-01-25T09:46:35;6.10;99.90
65692;DHT22;52411;52.716;6.696;2024-01-25T09:49:04;6.10;99.90
65692;DHT22;52411;52.716;6.696;2024-01-25T09:51:37;6.10;99.90
65692;DHT22;52411;52.716;6.696;2024-01-25T09:54:07;6.10;99.90
65692;DHT22;52411;52.716;6.696;2024-01-25T09:56:34;6.20;99.90
65692;DHT22;52411;52.716;6.696;2024-01-25T09:59:00;6.20;99.90
65692;DHT22;52411;52.716;6.696;2024-01-25T10:01:26;6.20;99.90
65692;DHT22;52411;52.716;6.696;2024-01-25T10:03:51;6.30;99.90
65692;DHT22;52411;52.716;6.696;2024-01-25T10:06:17;6.30;99.90
65692;DHT22;52411;52.716;6.696;2024-01-25T10:08:43;6.40;99.90
65692;DHT22;52411;52.716;6.696;2024-01-25T10:11:10;6.40;99.90
65692;DHT22;52411;52.716;6.696;2024-01-25T10:13:43;6.40;99.90
65692;DHT22;52411;52.716;6.696;2024-01-25T10:16:15;6.50;99.90
65692;DHT22;52411;52.716;6.696;2024-01-25T10:18:42;6.60;99.90
65692;DHT22;52411;52.716;6.696;2024-01-25T10:21:12;6.60;99.90
65692;DHT22;52411;52.716;6.696;2024-01-25T10:23:38;6.70;99.90
65692;DHT22;52411;52.716;6.696;2024-01-25T10:26:04;6.70;99.90
65692;DHT22;52411;52.716;6.696;2024-01-25T10:28:29;6.80;99.90
65692;DHT22;52411;52.716;6.696;2024-01-25T10:30:57;6.90;99.90
65692;DHT22;52411;52.716;6.696;2024-01-25T10:33:24;6.90;99.90
65692;DHT22;52411;52.716;6.696;2024-01-25T10:35:56;7.00;99.90
65692;DHT22;52411;52.716;6.696;2024-01-25T10:38:30;7.00;99.90
65692;DHT22;52411;52.716;6.696;2024-01-25T10:40:59;7.00;99.90
65692;DHT22;52411;52.716;6.696;2024-01-25T10:43:26;7.10;99.90
65692;DHT22;52411;52.716;6.696;2024-01-25T10:45:51;7.10;99.90
65692;DHT22;52411;52.716;6.696;2024-01-25T10:48:21;7.10;99.90
65692;DHT22;52411;52.716;6.696;2024-01-25T10:50:48;7.10;99.90
65692;DHT22;52411;52.716;6.696;2024-01-25T10:53:15;7.10;99.90
65692;DHT22;52411;52.716;6.696;2024-01-25T10:55:41;7.20;99.90
65692;DHT22;52411;52.716;6.696;2024-01-25T10:58:07;7.20;99.90
65692;DHT22;52411;52.716;6.696;2024-01-25T11:00:35;7.20;99.90
65692;DHT22;52411;52.716;6.696;2024-01-25T11:03:01;7.30;99.90
65692;DHT22;52411;52.716;6.696;2024-01-25T11:05:26;7.40;99.90
65692;DHT22;52411;52.716;6.696;2024-01-25T11:07:52;7.50;99.90
65692;DHT22;52411;52.716;6.696;2024-01-25T11:10:24;7.50;99.90
65692;DHT22;52411;52.716;6.696;2024-01-25T11:12:51;7.50;99.90
65692;DHT22;52411;52.716;6.696;2024-01-25T11:17:55;7.60;99.90
65692;DHT22;52411;52.716;6.696;2024-01-25T11:20:25;7.60;99.90
65692;DHT22;52411;52.716;6.696;2024-01-25T11:22:58;7.70;99.90
65692;DHT22;52411;52.716;6.696;2024-01-25T11:25:27;7.70;99.90
65692;DHT22;52411;52.716;6.696;2024-01-25T11:27:54;7.80;99.90
65692;DHT22;52411;52.716;6.696;2024-01-25T11:30:20;8.00;99.90
65692;DHT22;52411;52.716;6.696;2024-01-25T11:32:49;8.00;99.90
65692;DHT22;52411;52.716;6.696;2024-01-25T11:35:16;8.10;99.90
65692;DHT22;52411;52.716;6.696;2024-01-25T11:37:46;8.10;99.90
65692;DHT22;52411;52.716;6.696;2024-01-25T11:40:13;8.30;99.90
65692;DHT22;52411;52.716;6.696;2024-01-25T11:42:39;8.40;99.90
65692;DHT22;52411;52.716;6.696;2024-01-25T11:45:08;8.40;99.90
65692;DHT22;52411;52.716;6.696;2024-01-25T11:47:35;8.30;99.90
65692;DHT22;52411;52.716;6.696;2024-01-25T11:50:01;8.40;99.90
65692;DHT22;52411;52.716;6.696;2024-01-25T11:52:27;8.50;99.90
65692;DHT22;52411;52.716;6.696;2024-01-25T11:54:53;8.50;99.90
65692;DHT22;52411;52.716;6.696;2024-01-25T11:57:19;8.50;99.90
65692;DHT22;52411;52.716;6.696;2024-01-25T11:59:45;8.40;99.90
65692;DHT22;52411;52.716;6.696;2024-01-25T12:02:14;8.50;99.90
65692;DHT22;52411;52.716;6.696;2024-01-25T12:04:40;8.50;99.90
65692;DHT22;52411;52.716;6.696;2024-01-25T12:07:07;8.40;99.90
65692;DHT22;52411;52.716;6.696;2024-01-25T12:09:33;8.40;99.90
65692;DHT22;52411;52.716;6.696;2024-01-25T12:12:00;8.40;99.90
65692;DHT22;52411;52.716;6.696;2024-01-25T12:14:27;8.50;99.90
65692;DHT22;52411;52.716;6.696;2024-01-25T12:16:55;8.40;99.90
65692;DHT22;52411;52.716;6.696;2024-01-25T12:19:21;8.40;99.90
65692;DHT22;52411;52.716;6.696;2024-01-25T12:21:47;8.30;99.90
65692;DHT22;52411;52.716;6.696;2024-01-25T12:24:12;8.40;99.90
65692;DHT22;52411;52.716;6.696;2024-01-25T12:26:38;8.40;99.90
65692;DHT22;52411;52.716;6.696;2024-01-25T12:29:04;8.40;99.90
65692;DHT22;52411;52.716;6.696;2024-01-25T12:31:30;8.50;99.90
65692;DHT22;52411;52.716;6.696;2024-01-25T12:33:56;8.50;99.90
65692;DHT22;52411;52.716;6.696;2024-01-25T12:36:23;8.50;99.90
65692;DHT22;52411;52.716;6.696;2024-01-25T12:38:48;8.40;99.90
65692;DHT22;52411;52.716;6.696;2024-01-25T12:41:14;8.40;99.90
65692;DHT22;52411;52.716;6.696;2024-01-25T12:43:40;8.40;99.90
65692;DHT22;52411;52.716;6.696;2024-01-25T12:46:06;8.40;99.90
65692;DHT22;52411;52.716;6.696;2024-01-25T12:48:31;8.40;99.90
65692;DHT22;52411;52.716;6.696;2024-01-25T12:50:57;8.50;99.90
65692;DHT22;52411;52.716;6.696;2024-01-25T12:53:23;8.50;99.90
65692;DHT22;52411;52.716;6.696;2024-01-25T12:55:48;8.50;99.90
65692;DHT22;52411;52.716;6.696;2024-01-25T12:58:14;8.60;99.90
65692;DHT22;52411;52.716;6.696;2024-01-25T13:00:39;8.70;99.90
65692;DHT22;52411;52.716;6.696;2024-01-25T13:03:05;8.80;99.90
65692;DHT22;52411;52.716;6.696;2024-01-25T13:05:31;8.90;99.90
65692;DHT22;52411;52.716;6.696;2024-01-25T13:08:00;8.90;99.90
65692;DHT22;52411;52.716;6.696;2024-01-25T13:10:27;8.90;99.90
65692;DHT22;52411;52.716;6.696;2024-01-25T13:12:53;9.00;99.90
65692;DHT22;52411;52.716;6.696;2024-01-25T13:15:18;9.10;99.90
65692;DHT22;52411;52.716;6.696;2024-01-25T13:17:44;9.20;99.90
65692;DHT22;52411;52.716;6.696;2024-01-25T13:20:10;9.20;99.90
65692;DHT22;52411;52.716;6.696;2024-01-25T13:22:36;9.30;99.90
65692;DHT22;52411;52.716;6.696;2024-01-25T13:25:02;9.40;99.90
65692;DHT22;52411;52.716;6.696;2024-01-25T13:27:28;9.40;99.90
65692;DHT22;52411;52.716;6.696;2024-01-25T13:29:54;9.40;99.90
65692;DHT22;52411;52.716;6.696;2024-01-25T13:32:20;9.30;99.90
65692;DHT22;52411;52.716;6.696;2024-01-25T13:34:46;9.30;99.90
65692;DHT22;52411;52.716;6.696;2024-01-25T13:37:12;9.30;99.90
65692;DHT22;52411;52.716;6.696;2024-01-25T13:39:37;9.20;99.90
65692;DHT22;52411;52.716;6.696;2024-01-25T13:42:03;9.20;99.90
65692;DHT22;52411;52.716;6.696;2024-01-25T13:44:28;9.10;99.90
65692;DHT22;52411;52.716;6.696;2024-01-25T13:46:54;9.10;99.90
65692;DHT22;52411;52.716;6.696;2024-01-25T13:49:21;9.10;99.90
65692;DHT22;52411;52.716;6.696;2024-01-25T13:51:47;9.00;99.90
65692;DHT22;52411;52.716;6.696;2024-01-25T13:54:12;9.00;99.90
65692;DHT22;52411;52.716;6.696;2024-01-25T13:56:38;9.00;99.90
65692;DHT22;52411;52.716;6.696;2024-01-25T13:59:05;9.00;99.90
65692;DHT22;52411;52.716;6.696;2024-01-25T14:01:31;9.00;99.90
65692;DHT22;52411;52.716;6.696;2024-01-25T14:03:57;8.90;99.90
65692;DHT22;52411;52.716;6.696;2024-01-25T14:06:22;9.00;99.90
65692;DHT22;52411;52.716;6.696;2024-01-25T14:08:48;9.00;99.90
65692;DHT22;52411;52.716;6.696;2024-01-25T14:11:14;9.00;99.90
65692;DHT22;52411;52.716;6.696;2024-01-25T14:13:40;9.00;99.90
65692;DHT22;52411;52.716;6.696;2024-01-25T14:16:06;9.00;99.90
65692;DHT22;52411;52.716;6.696;2024-01-25T14:18:37;9.00;99.90
65692;DHT22;52411;52.716;6.696;2024-01-25T14:21:03;8.90;99.90
65692;DHT22;52411;52.716;6.696;2024-01-25T14:23:29;8.90;99.90
65692;DHT22;52411;52.716;6.696;2024-01-25T14:25:54;8.80;99.90
65692;DHT22;52411;52.716;6.696;2024-01-25T14:28:20;8.80;99.90
65692;DHT22;52411;52.716;6.696;2024-01-25T14:30:46;8.70;99.90
65692;DHT22;52411;52.716;6.696;2024-01-25T14:33:12;8.60;99.90
65692;DHT22;52411;52.716;6.696;2024-01-25T14:35:37;8.60;99.90
65692;DHT22;52411;52.716;6.696;2024-01-25T14:38:03;8.50;99.90
65692;DHT22;52411;52.716;6.696;2024-01-25T14:40:28;8.30;99.90
65692;DHT22;52411;52.716;6.696;2024-01-25T14:42:54;8.30;99.90
65692;DHT22;52411;52.716;6.696;2024-01-25T14:45:19;8.20;99.90
65692;DHT22;52411;52.716;6.696;2024-01-25T14:47:45;8.10;99.90
65692;DHT22;52411;52.716;6.696;2024-01-25T14:50:11;8.10;99.90
65692;DHT22;52411;52.716;6.696;2024-01-25T14:52:36;8.00;99.90
65692;DHT22;52411;52.716;6.696;2024-01-25T14:55:03;8.00;99.90
65692;DHT22;52411;52.716;6.696;2024-01-25T14:57:29;8.00;99.90
65692;DHT22;52411;52.716;6.696;2024-01-25T14:59:55;7.90;99.90
65692;DHT22;52411;52.716;6.696;2024-01-25T15:02:20;7.90;99.90
65692;DHT22;52411;52.716;6.696;2024-01-25T15:04:46;7.90;99.90
65692;DHT22;52411;52.716;6.696;2024-01-25T15:07:12;7.90;99.90
65692;DHT22;52411;52.716;6.696;2024-01-25T15:09:38;7.80;99.90
65692;DHT22;52411;52.716;6.696;2024-01-25T15:12:04;7.80;99.90
65692;DHT22;52411;52.716;6.696;2024-01-25T15:14:29;7.80;99.90
65692;DHT22;52411;52.716;6.696;2024-01-25T15:16:55;7.80;99.90
65692;DHT22;52411;52.716;6.696;2024-01-25T15:19:21;7.70;99.90
65692;DHT22;52411;52.716;6.696;2024-01-25T15:21:46;7.70;99.90
65692;DHT22;52411;52.716;6.696;2024-01-25T15:24:12;7.80;99.90
65692;DHT22;52411;52.716;6.696;2024-01-25T15:26:40;7.80;99.90
65692;DHT22;52411;52.716;6.696;2024-01-25T15:29:06;7.80;99.90
65692;DHT22;52411;52.716;6.696;2024-01-25T15:31:32;7.80;99.90
65692;DHT22;52411;52.716;6.696;2024-01-25T15:33:57;7.80;99.90
65692;DHT22;52411;52.716;6.696;2024-01-25T15:36:23;7.80;99.90
65692;DHT22;52411;52.716;6.696;2024-01-25T15:38:48;7.80;99.90